sensor_id;sensor_type;location;lat;lon;timestamp;temperature;humidity
1455;DHT22;721;48.168;12.818;2023-05-23T00:01:20;18.90;8.60
1455;DHT22;721;48.168;12.818;2023-05-23T00:03:47;19.10;8.40
1455;DHT22;721;48.168;12.818;2023-05-23T00:06:13;19.00;8.60
1455;DHT22;721;48.168;12.818;2023-05-23T00:08:45;19.20;9.20
1455;DHT22;721;48.168;12.818;2023-05-23T00:11:12;19.00;8.60
1455;DHT22;721;48.168;12.818;2023-05-23T00:13:40;18.90;8.60
1455;DHT22;721;48.168;12.818;2023-05-23T00:16:08;18.90;8.20
1455;DHT22;721;48.168;12.818;2023-05-23T00:18:35;18.80;8.50
1455;DHT22;721;48.168;12.818;2023-05-23T00:21:01;18.70;8.50
1455;DHT22;721;48.168;12.818;2023-05-23T00:23:28;18.60;8.40
1455;DHT22;721;48.168;12.818;2023-05-23T00:25:58;18.60;9.00
1455;DHT22;721;48.168;12.818;2023-05-23T00:28:25;18.60;9.40
1455;DHT22;721;48.168;12.818;2023-05-23T00:30:53;18.60;9.20
1455;DHT22;721;48.168;12.818;2023-05-23T00:33:20;18.60;9.20
1455;DHT22;721;48.168;12.818;2023-05-23T00:35:48;18.50;9.30
1455;DHT22;721;48.168;12.818;2023-05-23T00:38:15;18.50;9.40
1455;DHT22;721;48.168;12.818;2023-05-23T00:40:42;18.50;9.50
1455;DHT22;721;48.168;12.818;2023-05-23T00:43:09;18.50;9.20
1455;DHT22;721;48.168;12.818;2023-05-23T00:45:35;18.50;9.40
1455;DHT22;721;48.168;12.818;2023-05-23T00:48:04;18.40;9.50
1455;DHT22;721;48.168;12.818;2023-05-23T00:50:31;18.40;9.80
1455;DHT22;721;48.168;12.818;2023-05-23T00:52:59;18.30;10.00
1455;DHT22;721;48.168;12.818;2023-05-23T00:55:27;18.30;9.90
1455;DHT22;721;48.168;12.818;2023-05-23T00:57:54;18.30;9.90
1455;DHT22;721;48.168;12.818;2023-05-23T01:00:22;18.20;10.20
1455;DHT22;721;48.168;12.818;2023-05-23T01:02:51;18.30;10.00
1455;DHT22;721;48.168;12.818;2023-05-23T01:05:19;18.40;10.10
1455;DHT22;721;48.168;12.818;2023-05-23T01:07:49;18.30;10.20
1455;DHT22;721;48.168;12.818;2023-05-23T01:10:18;18.30;10.10
1455;DHT22;721;48.168;12.818;2023-05-23T01:12:54;18.40;10.50
1455;DHT22;721;48.168;12.818;2023-05-23T01:15:26;18.20;11.00
1455;DHT22;721;48.168;12.818;2023-05-23T01:18:01;18.20;10.60
1455;DHT22;721;48.168;12.818;2023-05-23T01:20:36;18.20;10.30
1455;DHT22;721;48.168;12.818;2023-05-23T01:23:28;18.20;10.20
1455;DHT22;721;48.168;12.818;2023-05-23T01:26:06;18.20;10.20
1455;DHT22;721;48.168;12.818;2023-05-23T01:28:45;18.10;10.50
1455;DHT22;721;48.168;12.818;2023-05-23T01:31:13;18.10;10.40
1455;DHT22;721;48.168;12.818;2023-05-23T01:33:42;18.10;10.90
1455;DHT22;721;48.168;12.818;2023-05-23T01:36:12;18.10;10.90
1455;DHT22;721;48.168;12.818;2023-05-23T01:38:39;18.00;10.80
1455;DHT22;721;48.168;12.818;2023-05-23T01:41:06;18.00;11.10
1455;DHT22;721;48.168;12.818;2023-05-23T01:43:33;18.00;11.10
1455;DHT22;721;48.168;12.818;2023-05-23T01:46:02;18.00;11.00
1455;DHT22;721;48.168;12.818;2023-05-23T01:48:30;18.20;11.40
1455;DHT22;721;48.168;12.818;2023-05-23T01:50:57;17.90;11.20
1455;DHT22;721;48.168;12.818;2023-05-23T01:53:25;17.90;11.60
1455;DHT22;721;48.168;12.818;2023-05-23T01:55:52;18.00;11.70
1455;DHT22;721;48.168;12.818;2023-05-23T01:58:20;18.00;11.60
1455;DHT22;721;48.168;12.818;2023-05-23T02:00:47;18.00;11.00
1455;DHT22;721;48.168;12.818;2023-05-23T02:03:15;18.00;11.10
1455;DHT22;721;48.168;12.818;2023-05-23T02:05:42;18.00;11.30
1455;DHT22;721;48.168;12.818;2023-05-23T02:08:08;18.20;11.30
1455;DHT22;721;48.168;12.818;2023-05-23T02:10:35;17.80;11.70
1455;DHT22;721;48.168;12.818;2023-05-23T02:13:02;17.80;11.80
1455;DHT22;721;48.168;12.818;2023-05-23T02:15:29;17.70;12.30
1455;DHT22;721;48.168;12.818;2023-05-23T02:17:56;17.70;13.00
1455;DHT22;721;48.168;12.818;2023-05-23T02:20:24;17.70;12.80
1455;DHT22;721;48.168;12.818;2023-05-23T02:22:51;17.60;13.10
1455;DHT22;721;48.168;12.818;2023-05-23T02:25:17;17.60;13.10
1455;DHT22;721;48.168;12.818;2023-05-23T02:27:44;17.60;13.10
1455;DHT22;721;48.168;12.818;2023-05-23T02:30:12;17.60;13.80
1455;DHT22;721;48.168;12.818;2023-05-23T02:32:39;17.50;15.00
1455;DHT22;721;48.168;12.818;2023-05-23T02:35:06;17.50;15.10
1455;DHT22;721;48.168;12.818;2023-05-23T02:37:34;17.50;14.40
1455;DHT22;721;48.168;12.818;2023-05-23T02:40:01;17.40;14.40
1455;DHT22;721;48.168;12.818;2023-05-23T02:42:28;17.70;14.30
1455;DHT22;721;48.168;12.818;2023-05-23T02:44:55;17.50;14.00
1455;DHT22;721;48.168;12.818;2023-05-23T02:47:22;17.50;14.20
1455;DHT22;721;48.168;12.818;2023-05-23T02:49:49;18.10;14.70
1455;DHT22;721;48.168;12.818;2023-05-23T02:52:15;17.80;14.50
1455;DHT22;721;48.168;12.818;2023-05-23T02:54:43;17.40;14.60
1455;DHT22;721;48.168;12.818;2023-05-23T02:57:10;17.30;15.60
1455;DHT22;721;48.168;12.818;2023-05-23T02:59:37;17.30;15.60
1455;DHT22;721;48.168;12.818;2023-05-23T03:02:04;17.30;15.80
1455;DHT22;721;48.168;12.818;2023-05-23T03:04:31;17.30;15.90
1455;DHT22;721;48.168;12.818;2023-05-23T03:06:58;17.20;16.10
1455;DHT22;721;48.168;12.818;2023-05-23T03:09:24;17.10;16.80
1455;DHT22;721;48.168;12.818;2023-05-23T03:11:53;17.10;17.10
1455;DHT22;721;48.168;12.818;2023-05-23T03:14:19;17.00;17.30
1455;DHT22;721;48.168;12.818;2023-05-23T03:16:46;17.00;17.60
1455;DHT22;721;48.168;12.818;2023-05-23T03:19:13;17.00;18.40
1455;DHT22;721;48.168;12.818;2023-05-23T03:21:40;16.90;19.20
1455;DHT22;721;48.168;12.818;2023-05-23T03:24:07;16.90;19.20
1455;DHT22;721;48.168;12.818;2023-05-23T03:26:33;16.90;19.60
1455;DHT22;721;48.168;12.818;2023-05-23T03:29:02;16.80;20.20
1455;DHT22;721;48.168;12.818;2023-05-23T03:31:29;16.90;19.70
1455;DHT22;721;48.168;12.818;2023-05-23T03:33:55;16.90;19.80
1455;DHT22;721;48.168;12.818;2023-05-23T03:36:22;16.90;20.30
1455;DHT22;721;48.168;12.818;2023-05-23T03:38:53;16.90;20.30
1455;DHT22;721;48.168;12.818;2023-05-23T03:41:19;16.90;20.00
1455;DHT22;721;48.168;12.818;2023-05-23T03:43:46;16.90;20.10
1455;DHT22;721;48.168;12.818;2023-05-23T03:46:15;16.90;19.80
1455;DHT22;721;48.168;12.818;2023-05-23T03:48:41;16.90;20.00
1455;DHT22;721;48.168;12.818;2023-05-23T03:51:08;16.90;20.40
1455;DHT22;721;48.168;12.818;2023-05-23T03:53:35;16.90;20.20
1455;DHT22;721;48.168;12.818;2023-05-23T03:56:02;17.10;20.10
1455;DHT22;721;48.168;12.818;2023-05-23T03:58:29;17.10;19.80
1455;DHT22;721;48.168;12.818;2023-05-23T04:00:55;17.10;20.00
1455;DHT22;721;48.168;12.818;2023-05-23T04:03:23;17.00;20.20
1455;DHT22;721;48.168;12.818;2023-05-23T04:05:51;17.00;20.10
1455;DHT22;721;48.168;12.818;2023-05-23T04:08:18;17.00;20.40
1455;DHT22;721;48.168;12.818;2023-05-23T04:10:46;17.20;21.00
1455;DHT22;721;48.168;12.818;2023-05-23T04:13:13;17.10;21.20
1455;DHT22;721;48.168;12.818;2023-05-23T04:15:40;17.00;21.90
1455;DHT22;721;48.168;12.818;2023-05-23T04:18:07;17.00;23.00
1455;DHT22;721;48.168;12.818;2023-05-23T04:20:35;17.00;23.80
1455;DHT22;721;48.168;12.818;2023-05-23T04:23:02;17.00;24.20
1455;DHT22;721;48.168;12.818;2023-05-23T04:25:29;17.00;25.20
1455;DHT22;721;48.168;12.818;2023-05-23T04:27:55;17.10;26.60
1455;DHT22;721;48.168;12.818;2023-05-23T04:30:22;17.00;26.40
1455;DHT22;721;48.168;12.818;2023-05-23T04:32:49;17.00;26.20
1455;DHT22;721;48.168;12.818;2023-05-23T04:35:16;17.10;25.90
1455;DHT22;721;48.168;12.818;2023-05-23T04:37:44;17.10;25.90
1455;DHT22;721;48.168;12.818;2023-05-23T04:40:11;17.10;26.10
1455;DHT22;721;48.168;12.818;2023-05-23T04:42:39;17.30;26.30
1455;DHT22;721;48.168;12.818;2023-05-23T04:45:07;17.20;25.80
1455;DHT22;721;48.168;12.818;2023-05-23T04:47:35;17.30;25.70
1455;DHT22;721;48.168;12.818;2023-05-23T04:50:02;17.60;26.50
1455;DHT22;721;48.168;12.818;2023-05-23T04:52:29;17.40;26.30
1455;DHT22;721;48.168;12.818;2023-05-23T04:54:59;17.40;25.50
1455;DHT22;721;48.168;12.818;2023-05-23T04:57:26;17.40;26.40
1455;DHT22;721;48.168;12.818;2023-05-23T04:59:53;17.40;26.70
1455;DHT22;721;48.168;12.818;2023-05-23T05:02:21;17.70;26.60
1455;DHT22;721;48.168;12.818;2023-05-23T05:04:48;17.60;26.60
1455;DHT22;721;48.168;12.818;2023-05-23T05:07:15;17.60;26.50
1455;DHT22;721;48.168;12.818;2023-05-23T05:09:42;17.60;26.80
1455;DHT22;721;48.168;12.818;2023-05-23T05:12:10;17.80;26.50
1455;DHT22;721;48.168;12.818;2023-05-23T05:14:37;17.50;25.30
1455;DHT22;721;48.168;12.818;2023-05-23T05:17:04;17.70;25.10
1455;DHT22;721;48.168;12.818;2023-05-23T05:19:31;17.90;24.50
1455;DHT22;721;48.168;12.818;2023-05-23T05:21:58;18.00;25.00
1455;DHT22;721;48.168;12.818;2023-05-23T05:24:25;18.10;24.60
1455;DHT22;721;48.168;12.818;2023-05-23T05:26:53;18.10;24.60
1455;DHT22;721;48.168;12.818;2023-05-23T05:29:21;18.20;23.90
1455;DHT22;721;48.168;12.818;2023-05-23T05:31:48;18.40;23.50
1455;DHT22;721;48.168;12.818;2023-05-23T05:34:15;18.40;22.30
1455;DHT22;721;48.168;12.818;2023-05-23T05:36:42;18.50;22.50
1455;DHT22;721;48.168;12.818;2023-05-23T05:39:12;18.50;22.50
1455;DHT22;721;48.168;12.818;2023-05-23T05:41:39;18.80;22.10
1455;DHT22;721;48.168;12.818;2023-05-23T05:44:08;18.60;22.20
1455;DHT22;721;48.168;12.818;2023-05-23T05:46:39;18.60;22.10
1455;DHT22;721;48.168;12.818;2023-05-23T05:49:06;18.60;21.70
1455;DHT22;721;48.168;12.818;2023-05-23T05:51:33;18.60;21.60
1455;DHT22;721;48.168;12.818;2023-05-23T05:53:59;18.50;21.30
1455;DHT22;721;48.168;12.818;2023-05-23T05:56:26;18.50;22.20
1455;DHT22;721;48.168;12.818;2023-05-23T05:58:53;18.50;22.40
1455;DHT22;721;48.168;12.818;2023-05-23T06:01:20;18.60;22.70
1455;DHT22;721;48.168;12.818;2023-05-23T06:03:48;18.70;22.70
1455;DHT22;721;48.168;12.818;2023-05-23T06:06:15;18.60;23.90
1455;DHT22;721;48.168;12.818;2023-05-23T06:08:41;18.70;24.50
1455;DHT22;721;48.168;12.818;2023-05-23T06:11:08;18.70;23.60
1455;DHT22;721;48.168;12.818;2023-05-23T06:13:36;18.70;23.80
1455;DHT22;721;48.168;12.818;2023-05-23T06:16:03;18.80;24.00
1455;DHT22;721;48.168;12.818;2023-05-23T06:18:30;18.90;23.60
1455;DHT22;721;48.168;12.818;2023-05-23T06:20:58;18.90;22.30
1455;DHT22;721;48.168;12.818;2023-05-23T06:23:25;19.10;22.80
1455;DHT22;721;48.168;12.818;2023-05-23T06:25:52;19.10;21.30
1455;DHT22;721;48.168;12.818;2023-05-23T06:28:19;19.10;20.50
1455;DHT22;721;48.168;12.818;2023-05-23T06:30:46;19.00;20.90
1455;DHT22;721;48.168;12.818;2023-05-23T06:33:12;19.00;21.30
1455;DHT22;721;48.168;12.818;2023-05-23T06:35:39;19.10;20.50
1455;DHT22;721;48.168;12.818;2023-05-23T06:38:07;19.10;21.80
1455;DHT22;721;48.168;12.818;2023-05-23T06:40:34;19.30;21.80
1455;DHT22;721;48.168;12.818;2023-05-23T06:43:00;19.40;20.60
1455;DHT22;721;48.168;12.818;2023-05-23T06:45:27;19.50;18.70
1455;DHT22;721;48.168;12.818;2023-05-23T06:47:54;19.50;18.90
1455;DHT22;721;48.168;12.818;2023-05-23T06:50:21;19.50;19.70
1455;DHT22;721;48.168;12.818;2023-05-23T06:52:47;19.40;19.90
1455;DHT22;721;48.168;12.818;2023-05-23T06:55:16;19.40;20.40
1455;DHT22;721;48.168;12.818;2023-05-23T06:57:43;19.30;20.60
1455;DHT22;721;48.168;12.818;2023-05-23T07:00:11;19.30;21.30
1455;DHT22;721;48.168;12.818;2023-05-23T07:02:39;19.30;21.50
1455;DHT22;721;48.168;12.818;2023-05-23T07:05:06;19.20;20.50
1455;DHT22;721;48.168;12.818;2023-05-23T07:07:33;19.10;21.70
1455;DHT22;721;48.168;12.818;2023-05-23T07:10:00;19.10;21.60
1455;DHT22;721;48.168;12.818;2023-05-23T07:12:28;19.10;21.60
1455;DHT22;721;48.168;12.818;2023-05-23T07:14:55;19.20;22.30
1455;DHT22;721;48.168;12.818;2023-05-23T07:17:21;19.40;23.00
1455;DHT22;721;48.168;12.818;2023-05-23T07:19:48;19.70;20.60
1455;DHT22;721;48.168;12.818;2023-05-23T07:22:15;19.90;17.80
1455;DHT22;721;48.168;12.818;2023-05-23T07:24:42;20.10;17.90
1455;DHT22;721;48.168;12.818;2023-05-23T07:27:08;20.20;17.30
1455;DHT22;721;48.168;12.818;2023-05-23T07:29:37;20.30;15.60
1455;DHT22;721;48.168;12.818;2023-05-23T07:32:04;20.10;17.90
1455;DHT22;721;48.168;12.818;2023-05-23T07:34:31;20.10;17.10
1455;DHT22;721;48.168;12.818;2023-05-23T07:36:57;20.00;16.90
1455;DHT22;721;48.168;12.818;2023-05-23T07:39:24;19.80;17.10
1455;DHT22;721;48.168;12.818;2023-05-23T07:41:52;19.80;19.00
1455;DHT22;721;48.168;12.818;2023-05-23T07:44:19;19.90;18.70
1455;DHT22;721;48.168;12.818;2023-05-23T07:46:47;19.90;19.00
1455;DHT22;721;48.168;12.818;2023-05-23T07:49:14;19.60;19.10
1455;DHT22;721;48.168;12.818;2023-05-23T07:51:40;19.80;20.70
1455;DHT22;721;48.168;12.818;2023-05-23T07:54:08;19.90;21.00
1455;DHT22;721;48.168;12.818;2023-05-23T07:56:34;20.10;19.90
1455;DHT22;721;48.168;12.818;2023-05-23T07:59:02;20.40;18.10
1455;DHT22;721;48.168;12.818;2023-05-23T08:01:29;20.80;17.70
1455;DHT22;721;48.168;12.818;2023-05-23T08:03:57;20.60;15.60
1455;DHT22;721;48.168;12.818;2023-05-23T08:06:24;20.50;16.30
1455;DHT22;721;48.168;12.818;2023-05-23T08:08:51;20.30;16.20
1455;DHT22;721;48.168;12.818;2023-05-23T08:11:18;20.20;18.50
1455;DHT22;721;48.168;12.818;2023-05-23T08:13:44;20.30;17.20
1455;DHT22;721;48.168;12.818;2023-05-23T08:16:11;20.30;17.20
1455;DHT22;721;48.168;12.818;2023-05-23T08:18:38;20.30;17.00
1455;DHT22;721;48.168;12.818;2023-05-23T08:21:07;20.40;18.10
1455;DHT22;721;48.168;12.818;2023-05-23T08:23:33;20.60;18.30
1455;DHT22;721;48.168;12.818;2023-05-23T08:26:00;20.70;17.30
1455;DHT22;721;48.168;12.818;2023-05-23T08:28:27;20.80;16.00
1455;DHT22;721;48.168;12.818;2023-05-23T08:30:54;21.00;16.60
1455;DHT22;721;48.168;12.818;2023-05-23T08:33:22;21.10;15.90
1455;DHT22;721;48.168;12.818;2023-05-23T08:35:49;21.10;15.20
1455;DHT22;721;48.168;12.818;2023-05-23T08:38:17;21.20;15.70
1455;DHT22;721;48.168;12.818;2023-05-23T08:40:49;21.30;15.40
1455;DHT22;721;48.168;12.818;2023-05-23T08:43:16;21.10;15.80
1455;DHT22;721;48.168;12.818;2023-05-23T08:45:44;21.20;15.00
1455;DHT22;721;48.168;12.818;2023-05-23T08:48:12;21.30;15.40
1455;DHT22;721;48.168;12.818;2023-05-23T08:50:42;21.30;15.70
1455;DHT22;721;48.168;12.818;2023-05-23T08:53:14;21.10;13.10
1455;DHT22;721;48.168;12.818;2023-05-23T08:55:46;21.00;13.60
1455;DHT22;721;48.168;12.818;2023-05-23T08:58:14;21.40;14.10
1455;DHT22;721;48.168;12.818;2023-05-23T09:00:41;21.20;11.70
1455;DHT22;721;48.168;12.818;2023-05-23T09:03:08;21.20;11.10
1455;DHT22;721;48.168;12.818;2023-05-23T09:05:36;21.30;11.60
1455;DHT22;721;48.168;12.818;2023-05-23T09:08:03;21.20;13.20
1455;DHT22;721;48.168;12.818;2023-05-23T09:10:30;21.40;12.30
1455;DHT22;721;48.168;12.818;2023-05-23T09:12:58;21.70;11.30
1455;DHT22;721;48.168;12.818;2023-05-23T09:15:25;21.90;10.80
1455;DHT22;721;48.168;12.818;2023-05-23T09:17:58;21.90;8.70
1455;DHT22;721;48.168;12.818;2023-05-23T09:20:26;21.90;10.20
1455;DHT22;721;48.168;12.818;2023-05-23T09:22:54;22.30;9.40
1455;DHT22;721;48.168;12.818;2023-05-23T09:25:21;22.20;7.10
1455;DHT22;721;48.168;12.818;2023-05-23T09:27:48;22.50;7.20
1455;DHT22;721;48.168;12.818;2023-05-23T09:30:16;22.50;5.50
1455;DHT22;721;48.168;12.818;2023-05-23T09:32:56;22.40;7.20
1455;DHT22;721;48.168;12.818;2023-05-23T09:35:23;22.30;6.80
1455;DHT22;721;48.168;12.818;2023-05-23T09:37:50;22.10;7.40
1455;DHT22;721;48.168;12.818;2023-05-23T09:40:20;21.90;6.70
1455;DHT22;721;48.168;12.818;2023-05-23T09:42:47;21.80;7.70
1455;DHT22;721;48.168;12.818;2023-05-23T09:45:16;21.80;7.90
1455;DHT22;721;48.168;12.818;2023-05-23T09:47:48;21.80;8.30
1455;DHT22;721;48.168;12.818;2023-05-23T09:50:15;21.80;8.60
1455;DHT22;721;48.168;12.818;2023-05-23T09:52:42;21.80;9.20
1455;DHT22;721;48.168;12.818;2023-05-23T09:55:09;21.70;8.80
1455;DHT22;721;48.168;12.818;2023-05-23T09:57:40;21.90;10.50
1455;DHT22;721;48.168;12.818;2023-05-23T10:00:08;21.90;8.70
1455;DHT22;721;48.168;12.818;2023-05-23T10:02:53;22.00;7.00
1455;DHT22;721;48.168;12.818;2023-05-23T10:05:29;22.00;6.30
1455;DHT22;721;48.168;12.818;2023-05-23T10:07:58;22.10;8.00
1455;DHT22;721;48.168;12.818;2023-05-23T10:10:28;22.20;7.00
1455;DHT22;721;48.168;12.818;2023-05-23T10:12:58;22.40;7.40
1455;DHT22;721;48.168;12.818;2023-05-23T10:15:29;22.50;6.40
1455;DHT22;721;48.168;12.818;2023-05-23T10:18:02;22.40;5.90
1455;DHT22;721;48.168;12.818;2023-05-23T10:20:33;22.10;6.40
1455;DHT22;721;48.168;12.818;2023-05-23T10:23:02;22.00;7.70
1455;DHT22;721;48.168;12.818;2023-05-23T10:25:30;21.80;6.00
1455;DHT22;721;48.168;12.818;2023-05-23T10:27:58;21.90;7.90
1455;DHT22;721;48.168;12.818;2023-05-23T10:30:26;21.90;8.60
1455;DHT22;721;48.168;12.818;2023-05-23T10:32:53;21.60;9.60
1455;DHT22;721;48.168;12.818;2023-05-23T10:35:31;21.90;9.90
1455;DHT22;721;48.168;12.818;2023-05-23T10:38:08;22.20;8.10
1455;DHT22;721;48.168;12.818;2023-05-23T10:40:45;22.50;7.10
1455;DHT22;721;48.168;12.818;2023-05-23T10:43:17;22.50;6.90
1455;DHT22;721;48.168;12.818;2023-05-23T10:45:46;22.30;5.70
1455;DHT22;721;48.168;12.818;2023-05-23T10:48:22;22.20;6.50
1455;DHT22;721;48.168;12.818;2023-05-23T10:51:04;22.20;6.90
1455;DHT22;721;48.168;12.818;2023-05-23T10:53:31;21.90;8.20
1455;DHT22;721;48.168;12.818;2023-05-23T10:55:58;21.90;9.70
1455;DHT22;721;48.168;12.818;2023-05-23T10:58:28;22.20;9.00
1455;DHT22;721;48.168;12.818;2023-05-23T11:00:59;22.50;7.40
1455;DHT22;721;48.168;12.818;2023-05-23T11:03:30;22.50;5.90
1455;DHT22;721;48.168;12.818;2023-05-23T11:06:00;22.40;6.70
1455;DHT22;721;48.168;12.818;2023-05-23T11:08:35;22.40;6.50
1455;DHT22;721;48.168;12.818;2023-05-23T11:11:03;22.50;6.70
1455;DHT22;721;48.168;12.818;2023-05-23T11:13:52;22.50;3.40
1455;DHT22;721;48.168;12.818;2023-05-23T11:16:23;22.50;5.20
1455;DHT22;721;48.168;12.818;2023-05-23T11:18:50;22.40;3.60
1455;DHT22;721;48.168;12.818;2023-05-23T11:21:18;22.30;4.30
1455;DHT22;721;48.168;12.818;2023-05-23T11:23:53;21.90;5.10
1455;DHT22;721;48.168;12.818;2023-05-23T11:26:30;22.10;5.90
1455;DHT22;721;48.168;12.818;2023-05-23T11:28:58;22.30;6.80
1455;DHT22;721;48.168;12.818;2023-05-23T11:31:24;22.70;5.50
1455;DHT22;721;48.168;12.818;2023-05-23T11:33:52;22.80;2.70
1455;DHT22;721;48.168;12.818;2023-05-23T11:36:20;22.80;2.80
1455;DHT22;721;48.168;12.818;2023-05-23T11:38:49;22.50;4.40
1455;DHT22;721;48.168;12.818;2023-05-23T11:41:17;22.30;1.00
1455;DHT22;721;48.168;12.818;2023-05-23T11:43:49;22.30;2.70
1455;DHT22;721;48.168;12.818;2023-05-23T11:46:16;22.30;2.40
1455;DHT22;721;48.168;12.818;2023-05-23T11:48:44;22.10;5.50
1455;DHT22;721;48.168;12.818;2023-05-23T11:51:11;22.00;4.80
1455;DHT22;721;48.168;12.818;2023-05-23T11:53:38;22.00;6.00
1455;DHT22;721;48.168;12.818;2023-05-23T11:56:06;22.10;6.70
1455;DHT22;721;48.168;12.818;2023-05-23T11:58:35;21.90;6.80
1455;DHT22;721;48.168;12.818;2023-05-23T12:01:03;21.80;6.80
1455;DHT22;721;48.168;12.818;2023-05-23T12:03:31;21.60;6.20
1455;DHT22;721;48.168;12.818;2023-05-23T12:05:58;21.30;7.00
1455;DHT22;721;48.168;12.818;2023-05-23T12:08:25;21.10;8.30
1455;DHT22;721;48.168;12.818;2023-05-23T12:10:54;21.00;12.80
1455;DHT22;721;48.168;12.818;2023-05-23T12:13:25;21.00;21.60
1455;DHT22;721;48.168;12.818;2023-05-23T12:15:53;21.00;23.40
1455;DHT22;721;48.168;12.818;2023-05-23T12:18:20;20.80;23.00
1455;DHT22;721;48.168;12.818;2023-05-23T12:20:48;20.60;22.00
1455;DHT22;721;48.168;12.818;2023-05-23T12:23:17;20.40;21.30
1455;DHT22;721;48.168;12.818;2023-05-23T12:25:49;20.20;21.70
1455;DHT22;721;48.168;12.818;2023-05-23T12:28:16;20.30;22.60
1455;DHT22;721;48.168;12.818;2023-05-23T12:30:44;20.10;21.60
1455;DHT22;721;48.168;12.818;2023-05-23T12:33:11;20.00;23.60
1455;DHT22;721;48.168;12.818;2023-05-23T12:35:42;20.10;23.40
1455;DHT22;721;48.168;12.818;2023-05-23T12:38:08;19.90;22.90
1455;DHT22;721;48.168;12.818;2023-05-23T12:40:36;20.00;24.20
1455;DHT22;721;48.168;12.818;2023-05-23T12:43:02;20.20;26.20
1455;DHT22;721;48.168;12.818;2023-05-23T12:45:35;20.50;26.40
1455;DHT22;721;48.168;12.818;2023-05-23T12:48:04;20.80;24.70
1455;DHT22;721;48.168;12.818;2023-05-23T12:50:31;21.10;23.20
1455;DHT22;721;48.168;12.818;2023-05-23T12:52:58;21.40;18.90
1455;DHT22;721;48.168;12.818;2023-05-23T12:55:25;21.60;16.80
1455;DHT22;721;48.168;12.818;2023-05-23T12:57:52;21.40;16.00
1455;DHT22;721;48.168;12.818;2023-05-23T13:00:20;21.20;14.70
1455;DHT22;721;48.168;12.818;2023-05-23T13:02:47;21.00;17.70
1455;DHT22;721;48.168;12.818;2023-05-23T13:05:16;20.90;17.40
1455;DHT22;721;48.168;12.818;2023-05-23T13:07:43;20.80;21.10
1455;DHT22;721;48.168;12.818;2023-05-23T13:10:10;20.90;26.70
1455;DHT22;721;48.168;12.818;2023-05-23T13:12:36;20.60;28.00
1455;DHT22;721;48.168;12.818;2023-05-23T13:15:04;20.60;28.00
1455;DHT22;721;48.168;12.818;2023-05-23T13:17:31;20.40;28.50
1455;DHT22;721;48.168;12.818;2023-05-23T13:19:58;20.30;29.40
1455;DHT22;721;48.168;12.818;2023-05-23T13:22:27;20.20;30.10
1455;DHT22;721;48.168;12.818;2023-05-23T13:24:55;20.30;32.70
1455;DHT22;721;48.168;12.818;2023-05-23T13:27:21;20.10;31.20
1455;DHT22;721;48.168;12.818;2023-05-23T13:29:48;19.90;32.60
1455;DHT22;721;48.168;12.818;2023-05-23T13:32:15;19.70;34.50
1455;DHT22;721;48.168;12.818;2023-05-23T13:34:42;19.80;33.70
1455;DHT22;721;48.168;12.818;2023-05-23T13:37:09;19.70;33.60
1455;DHT22;721;48.168;12.818;2023-05-23T13:39:37;19.60;34.60
1455;DHT22;721;48.168;12.818;2023-05-23T13:42:04;19.40;34.30
1455;DHT22;721;48.168;12.818;2023-05-23T13:44:32;19.30;34.30
1455;DHT22;721;48.168;12.818;2023-05-23T13:47:09;19.30;44.30
1455;DHT22;721;48.168;12.818;2023-05-23T13:49:36;19.10;54.50
1455;DHT22;721;48.168;12.818;2023-05-23T13:52:03;18.90;55.30
1455;DHT22;721;48.168;12.818;2023-05-23T13:54:30;18.80;55.70
1455;DHT22;721;48.168;12.818;2023-05-23T13:56:58;18.80;54.40
1455;DHT22;721;48.168;12.818;2023-05-23T13:59:25;18.90;59.30
1455;DHT22;721;48.168;12.818;2023-05-23T14:01:52;18.80;60.00
1455;DHT22;721;48.168;12.818;2023-05-23T14:04:19;18.90;60.80
1455;DHT22;721;48.168;12.818;2023-05-23T14:06:46;18.80;62.10
1455;DHT22;721;48.168;12.818;2023-05-23T14:09:12;18.80;57.60
1455;DHT22;721;48.168;12.818;2023-05-23T14:11:39;18.90;56.90
1455;DHT22;721;48.168;12.818;2023-05-23T14:14:08;18.80;55.20
1455;DHT22;721;48.168;12.818;2023-05-23T14:16:34;18.80;55.50
1455;DHT22;721;48.168;12.818;2023-05-23T14:19:01;18.90;56.00
1455;DHT22;721;48.168;12.818;2023-05-23T14:21:28;18.90;55.20
1455;DHT22;721;48.168;12.818;2023-05-23T14:23:55;19.00;53.00
1455;DHT22;721;48.168;12.818;2023-05-23T14:26:22;19.00;53.70
1455;DHT22;721;48.168;12.818;2023-05-23T14:28:49;19.00;53.50
1455;DHT22;721;48.168;12.818;2023-05-23T14:31:17;19.00;51.60
1455;DHT22;721;48.168;12.818;2023-05-23T14:33:45;19.00;52.00
1455;DHT22;721;48.168;12.818;2023-05-23T14:36:11;19.10;52.40
1455;DHT22;721;48.168;12.818;2023-05-23T14:38:38;19.30;50.70
1455;DHT22;721;48.168;12.818;2023-05-23T14:41:05;19.10;53.70
1455;DHT22;721;48.168;12.818;2023-05-23T14:43:32;19.20;48.20
1455;DHT22;721;48.168;12.818;2023-05-23T14:45:58;19.30;50.80
1455;DHT22;721;48.168;12.818;2023-05-23T14:48:26;19.30;57.00
1455;DHT22;721;48.168;12.818;2023-05-23T14:50:53;19.40;55.00
1455;DHT22;721;48.168;12.818;2023-05-23T14:53:20;19.70;65.90
1455;DHT22;721;48.168;12.818;2023-05-23T14:55:48;19.90;51.50
1455;DHT22;721;48.168;12.818;2023-05-23T14:58:15;20.20;54.80
1455;DHT22;721;48.168;12.818;2023-05-23T15:00:42;20.40;45.60
1455;DHT22;721;48.168;12.818;2023-05-23T15:03:11;20.50;39.50
1455;DHT22;721;48.168;12.818;2023-05-23T15:05:39;20.40;37.20
1455;DHT22;721;48.168;12.818;2023-05-23T15:08:06;20.60;40.60
1455;DHT22;721;48.168;12.818;2023-05-23T15:10:33;20.50;37.20
1455;DHT22;721;48.168;12.818;2023-05-23T15:13:00;20.60;39.80
1455;DHT22;721;48.168;12.818;2023-05-23T15:15:28;20.60;35.60
1455;DHT22;721;48.168;12.818;2023-05-23T15:18:01;20.60;37.40
1455;DHT22;721;48.168;12.818;2023-05-23T15:20:31;20.50;35.50
1455;DHT22;721;48.168;12.818;2023-05-23T15:22:59;20.50;35.50
1455;DHT22;721;48.168;12.818;2023-05-23T15:25:26;20.40;35.40
1455;DHT22;721;48.168;12.818;2023-05-23T15:27:52;20.30;38.70
1455;DHT22;721;48.168;12.818;2023-05-23T15:30:19;20.40;33.00
1455;DHT22;721;48.168;12.818;2023-05-23T15:32:46;20.20;31.90
1455;DHT22;721;48.168;12.818;2023-05-23T15:35:13;20.10;30.00
1455;DHT22;721;48.168;12.818;2023-05-23T15:37:40;20.10;30.00
1455;DHT22;721;48.168;12.818;2023-05-23T15:40:09;20.10;30.30
1455;DHT22;721;48.168;12.818;2023-05-23T15:42:36;20.10;31.90
1455;DHT22;721;48.168;12.818;2023-05-23T15:45:04;20.10;31.90
1455;DHT22;721;48.168;12.818;2023-05-23T15:47:30;20.20;31.50
1455;DHT22;721;48.168;12.818;2023-05-23T15:49:57;20.40;33.50
1455;DHT22;721;48.168;12.818;2023-05-23T15:52:24;20.40;27.20
1455;DHT22;721;48.168;12.818;2023-05-23T15:54:51;20.40;27.30
1455;DHT22;721;48.168;12.818;2023-05-23T15:57:19;20.40;26.30
1455;DHT22;721;48.168;12.818;2023-05-23T15:59:46;20.50;24.70
1455;DHT22;721;48.168;12.818;2023-05-23T16:02:13;20.40;23.00
1455;DHT22;721;48.168;12.818;2023-05-23T16:04:40;20.30;25.30
1455;DHT22;721;48.168;12.818;2023-05-23T16:07:07;20.20;27.60
1455;DHT22;721;48.168;12.818;2023-05-23T16:09:34;20.40;28.00